Time;durP1;ratioP1;P1;durP2;ratioP2;P2;SDS_P1;SDS_P2;PMS_P1;PMS_P2;Temp;Humidity;BMP_temperature;BMP_pressure;BME280_temperature;BME280_humidity;BME280_pressure;Samples;Min_cycle;Max_cycle;Signal;HPM_P1;HPM_P2
2022/06/27 00:01:14;;;;;;;5.03;1.33;;;13.80;96.60;;;;;;4972539;28;20462;-41
2022/06/27 00:03:39;;;;;;;2.80;1.20;;;13.90;96.60;;;;;;4972724;28;20031;-48
2022/06/27 00:06:05;;;;;;;3.78;1.45;;;13.80;95.90;;;;;;4955271;28;20030;-48
2022/06/27 00:08:31;;;;;;;2.40;1.10;;;13.80;96.20;;;;;;4972520;28;20026;-46
2022/06/27 00:10:56;;;;;;;5.60;1.60;;;13.80;96.30;;;;;;4972753;28;20049;-42
2022/06/27 00:13:22;;;;;;;5.50;1.60;;;13.70;96.40;;;;;;4972564;28;20394;-46
2022/06/27 00:15:48;;;;;;;3.55;1.50;;;13.70;96.50;;;;;;4972459;28;20029;-55
2022/06/27 00:18:14;;;;;;;4.05;1.58;;;13.70;96.50;;;;;;4972409;28;20413;-46
2022/06/27 00:20:39;;;;;;;3.92;1.40;;;13.60;96.50;;;;;;4972382;28;20458;-44
2022/06/27 00:23:05;;;;;;;8.73;1.60;;;13.60;96.60;;;;;;4972413;28;20050;-48
2022/06/27 00:25:30;;;;;;;7.05;1.55;;;13.60;96.80;;;;;;4972253;28;20489;-48
2022/06/27 00:27:56;;;;;;;5.60;1.80;;;13.60;96.80;;;;;;4972420;28;20034;-44
2022/06/27 00:30:22;;;;;;;4.28;1.60;;;13.50;96.90;;;;;;4972171;28;20114;-48
2022/06/27 00:32:48;;;;;;;4.00;1.50;;;13.50;96.80;;;;;;4972345;28;20038;-46
2022/06/27 00:35:14;;;;;;;5.95;2.90;;;13.50;96.90;;;;;;4972087;28;20078;-44
2022/06/27 00:37:40;;;;;;;4.20;1.60;;;13.50;96.80;;;;;;4972137;28;20043;-53
2022/06/27 00:40:06;;;;;;;4.90;1.55;;;13.60;96.90;;;;;;4972239;28;20065;-44
2022/06/27 00:42:33;;;;;;;4.57;1.70;;;13.50;96.70;;;;;;4971430;28;20023;-54
2022/06/27 00:44:58;;;;;;;3.15;1.63;;;13.40;97.00;;;;;;4972116;28;20031;-46
2022/06/27 00:47:24;;;;;;;8.23;1.85;;;13.50;97.30;;;;;;4972085;28;20026;-52
2022/06/27 00:49:50;;;;;;;4.97;1.80;;;13.40;97.40;;;;;;4972371;28;20034;-51
2022/06/27 00:52:16;;;;;;;4.50;1.55;;;13.50;97.30;;;;;;4972158;28;20026;-48
2022/06/27 00:54:44;;;;;;;7.07;1.80;;;13.40;97.20;;;;;;4971974;28;20027;-50
2022/06/27 00:57:12;;;;;;;5.05;1.85;;;13.40;97.10;;;;;;4972054;28;20085;-49
2022/06/27 00:59:38;;;;;;;6.28;1.48;;;13.40;97.90;;;;;;4972038;28;20039;-52
2022/06/27 01:02:05;;;;;;;3.67;1.20;;;13.40;97.40;;;;;;4971922;28;20029;-55
2022/06/27 01:04:34;;;;;;;6.07;1.55;;;13.50;97.30;;;;;;4971179;28;20035;-49
2022/06/27 01:06:59;;;;;;;5.95;1.52;;;13.60;97.40;;;;;;4971989;28;20073;-46
2022/06/27 01:09:25;;;;;;;4.22;1.70;;;13.50;96.90;;;;;;4971768;28;20094;-52
2022/06/27 01:11:52;;;;;;;4.72;1.63;;;13.60;97.10;;;;;;4971809;28;20359;-45
2022/06/27 01:14:19;;;;;;;3.83;1.55;;;13.60;97.10;;;;;;4971748;28;20034;-49
2022/06/27 01:16:45;;;;;;;5.55;1.40;;;13.50;96.90;;;;;;4972730;28;20034;-44
2022/06/27 01:19:13;;;;;;;4.03;1.20;;;13.50;96.90;;;;;;4975614;28;20087;-53
2022/06/27 01:21:51;;;;;;;5.50;2.00;;;13.50;97.00;;;;;;4975802;28;20054;-54
2022/06/27 01:24:18;;;;;;;4.85;1.40;;;13.40;97.10;;;;;;4975275;28;20039;-53
2022/06/27 01:26:45;;;;;;;5.80;1.30;;;13.30;96.70;;;;;;4975489;28;20050;-53
2022/06/27 01:29:11;;;;;;;3.35;1.20;;;13.30;96.70;;;;;;4975432;28;20042;-45
2022/06/27 01:31:38;;;;;;;3.67;1.42;;;13.20;96.80;;;;;;4975387;28;20034;-54
2022/06/27 01:34:04;;;;;;;3.70;1.95;;;13.10;96.80;;;;;;4975251;28;20491;-45
2022/06/27 01:36:42;;;;;;;3.80;1.30;;;13.10;96.90;;;;;;4975331;28;20109;-52
2022/06/27 01:39:27;;;;;;;3.65;1.33;;;13.10;97.00;;;;;;4975123;28;20486;-53
2022/06/27 01:41:55;;;;;;;3.33;1.40;;;13.00;97.10;;;;;;4975521;28;20106;-52
2022/06/27 01:44:24;;;;;;;2.67;1.45;;;12.90;97.20;;;;;;4975139;28;20030;-58
2022/06/27 01:46:54;;;;;;;6.93;1.60;;;12.90;97.30;;;;;;4975079;28;20018;-42
2022/06/27 01:49:20;;;;;;;3.50;1.45;;;12.80;97.40;;;;;;4975003;28;20371;-45
2022/06/27 01:51:48;;;;;;;3.80;1.58;;;12.80;97.50;;;;;;4974960;28;20058;-42
2022/06/27 01:54:16;;;;;;;2.83;1.42;;;12.70;97.60;;;;;;4975147;28;20031;-40
2022/06/27 01:56:44;;;;;;;4.57;1.70;;;12.70;97.80;;;;;;4974891;28;20070;-40
2022/06/27 01:59:11;;;;;;;4.57;1.80;;;12.70;98.00;;;;;;4974803;28;20113;-45
2022/06/27 02:01:38;;;;;;;5.30;1.55;;;12.70;98.00;;;;;;4974746;28;20040;-45
2022/06/27 02:04:05;;;;;;;2.80;1.40;;;12.60;98.40;;;;;;4974764;28;20038;-40
2022/06/27 02:06:31;;;;;;;3.22;1.50;;;12.60;98.30;;;;;;4957576;28;20030;-44
2022/06/27 02:08:58;;;;;;;4.80;1.40;;;12.50;98.40;;;;;;4974723;28;20059;-40
2022/06/27 02:11:25;;;;;;;5.38;1.55;;;12.50;98.50;;;;;;4974731;28;20035;-43
2022/06/27 02:13:52;;;;;;;4.50;1.60;;;12.50;98.50;;;;;;4974542;28;20026;-40
2022/06/27 02:16:19;;;;;;;4.85;1.85;;;12.50;98.50;;;;;;4974704;28;20041;-47
2022/06/27 02:18:46;;;;;;;4.70;1.60;;;12.40;98.40;;;;;;4974367;28;20043;-54
2022/06/27 02:21:16;;;;;;;3.83;1.55;;;12.40;98.50;;;;;;4957260;28;20033;-49
2022/06/27 02:23:41;;;;;;;5.50;1.80;;;12.40;98.60;;;;;;4974076;28;20446;-42
2022/06/27 02:26:09;;;;;;;3.88;1.40;;;12.40;98.60;;;;;;4974372;28;20035;-45
2022/06/27 02:28:36;;;;;;;2.83;1.50;;;12.30;98.70;;;;;;4973055;28;20023;-50
2022/06/27 02:31:03;;;;;;;3.45;1.58;;;12.30;98.90;;;;;;4974380;28;20418;-45
2022/06/27 02:33:39;;;;;;;3.65;2.47;;;12.20;98.90;;;;;;4974426;28;20019;-49
2022/06/27 02:36:07;;;;;;;4.32;1.63;;;12.20;98.80;;;;;;4961490;28;20031;-55
2022/06/27 02:38:34;;;;;;;2.78;1.58;;;12.20;98.80;;;;;;4957288;28;20129;-56
2022/06/27 02:41:02;;;;;;;5.85;1.77;;;12.10;98.80;;;;;;4974053;28;20401;-58
2022/06/27 02:43:29;;;;;;;4.05;1.88;;;12.10;98.70;;;;;;4974151;28;20065;-54
2022/06/27 02:45:56;;;;;;;3.35;1.92;;;12.10;98.60;;;;;;4973854;28;20435;-55
2022/06/27 02:48:26;;;;;;;4.65;1.40;;;12.10;98.70;;;;;;4974077;28;20098;-57
2022/06/27 02:50:56;;;;;;;3.22;1.50;;;12.00;98.60;;;;;;4973887;28;20442;-55
2022/06/27 02:53:40;;;;;;;3.35;1.63;;;12.00;98.60;;;;;;4974134;28;20033;-56
2022/06/27 02:56:10;;;;;;;2.35;1.23;;;12.00;98.50;;;;;;4973772;28;20011;-59
2022/06/27 02:58:59;;;;;;;2.67;1.40;;;11.90;98.50;;;;;;4974033;28;20039;-55
2022/06/27 03:01:26;;;;;;;;;;;11.90;98.60;;;;;;4972787;28;20427;-51
2022/06/27 03:03:53;;;;;;;4.25;1.48;;;12.00;98.70;;;;;;4973753;28;19992;-59
2022/06/27 03:06:19;;;;;;;3.47;1.20;;;11.90;98.50;;;;;;4973783;28;20503;-57
2022/06/27 03:08:47;;;;;;;4.57;1.23;;;11.90;98.50;;;;;;4973474;28;20035;-43
2022/06/27 03:11:17;;;;;;;4.13;1.40;;;11.90;98.40;;;;;;4973610;28;20031;-49
2022/06/27 03:13:44;;;;;;;4.55;1.80;;;11.90;98.40;;;;;;4973473;28;20034;-50
2022/06/27 03:16:11;;;;;;;3.97;1.70;;;11.90;98.40;;;;;;4973664;28;20483;-42
2022/06/27 03:18:37;;;;;;;3.78;1.40;;;11.90;98.40;;;;;;4973410;28;20104;-54
2022/06/27 03:21:03;;;;;;;4.45;1.70;;;11.80;98.40;;;;;;4973439;28;20461;-55
2022/06/27 03:23:29;;;;;;;3.28;1.60;;;11.70;98.50;;;;;;4977405;28;20042;-58
2022/06/27 03:25:54;;;;;;;3.35;1.55;;;11.70;98.70;;;;;;4992747;28;20033;-54
2022/06/27 03:28:21;;;;;;;5.68;1.83;;;11.70;98.70;;;;;;4992378;28;20023;-53
2022/06/27 03:30:47;;;;;;;4.78;1.75;;;11.70;98.90;;;;;;4992735;28;20022;-54
2022/06/27 03:33:13;;;;;;;3.58;1.90;;;11.60;98.80;;;;;;4975160;28;20026;-58
2022/06/27 03:35:39;;;;;;;4.57;1.48;;;11.60;99.00;;;;;;4992520;28;20375;-58
2022/06/27 03:38:05;;;;;;;5.47;1.75;;;11.50;99.30;;;;;;4992288;28;20109;-56
2022/06/27 03:40:31;;;;;;;3.90;1.60;;;11.50;99.20;;;;;;4992177;28;20121;-52
2022/06/27 03:42:57;;;;;;;5.63;1.67;;;11.50;99.30;;;;;;4992534;28;20042;-50
2022/06/27 03:45:22;;;;;;;3.95;1.70;;;11.60;99.50;;;;;;4992609;28;20032;-51
2022/06/27 03:47:50;;;;;;;4.70;1.58;;;11.50;99.50;;;;;;4992505;28;20461;-42
2022/06/27 03:50:17;;;;;;;4.40;1.70;;;11.60;99.40;;;;;;4992158;28;20030;-40
2022/06/27 03:52:43;;;;;;;3.53;1.60;;;11.60;99.40;;;;;;4992304;28;20145;-60
2022/06/27 03:55:10;;;;;;;4.70;2.30;;;11.60;99.40;;;;;;4992133;28;20066;-55
2022/06/27 03:57:47;;;;;;;3.33;1.58;;;11.70;99.40;;;;;;4992153;28;20041;-57
2022/06/27 04:00:13;;;;;;;4.72;1.50;;;11.70;99.40;;;;;;4992268;28;20054;-58
2022/06/27 04:02:38;;;;;;;2.60;1.20;;;11.70;99.40;;;;;;4992067;28;20065;-41
2022/06/27 04:05:04;;;;;;;3.67;1.60;;;11.70;99.20;;;;;;4992027;28;20045;-53
2022/06/27 04:07:31;;;;;;;6.10;1.95;;;11.70;99.40;;;;;;4991893;28;20018;-44
2022/06/27 04:09:57;;;;;;;2.90;1.67;;;11.70;99.20;;;;;;4992002;28;20508;-56
2022/06/27 04:12:23;;;;;;;5.40;1.65;;;11.70;99.20;;;;;;4991864;28;20030;-50
2022/06/27 04:14:49;;;;;;;4.90;1.80;;;11.70;99.20;;;;;;4992062;28;20072;-58
2022/06/27 04:17:15;;;;;;;3.45;1.60;;;11.70;99.40;;;;;;4991854;28;20019;-57
2022/06/27 04:19:40;;;;;;;5.30;2.00;;;11.70;99.40;;;;;;4991925;28;20030;-60
2022/06/27 04:22:08;;;;;;;4.53;1.77;;;11.70;99.30;;;;;;4991813;28;20038;-57
2022/06/27 04:24:34;;;;;;;3.33;1.45;;;11.80;99.30;;;;;;4991614;28;20042;-54
2022/06/27 04:27:00;;;;;;;5.45;1.73;;;11.80;99.40;;;;;;4991853;28;20058;-54
2022/06/27 04:29:26;;;;;;;3.58;1.48;;;11.80;99.30;;;;;;4991650;28;20070;-60
2022/06/27 04:31:52;;;;;;;2.22;1.45;;;11.90;99.20;;;;;;4991645;28;20501;-57
2022/06/27 04:34:18;;;;;;;5.75;1.40;;;11.90;99.10;;;;;;4991675;28;20478;-61
2022/06/27 04:36:45;;;;;;;3.03;1.30;;;12.00;99.00;;;;;;4991434;28;20033;-54
2022/06/27 04:39:15;;;;;;;4.28;1.85;;;12.00;99.20;;;;;;4991608;28;20409;-56
2022/06/27 04:41:43;;;;;;;5.10;1.50;;;12.10;99.20;;;;;;4991551;28;20031;-57
2022/06/27 04:44:10;;;;;;;3.50;1.65;;;12.10;99.20;;;;;;4991588;28;20041;-55
2022/06/27 04:46:35;;;;;;;6.30;1.50;;;12.20;99.20;;;;;;4991311;28;20133;-56
2022/06/27 04:49:01;;;;;;;3.75;1.77;;;12.20;99.30;;;;;;4991320;28;20135;-49
2022/06/27 04:51:27;;;;;;;2.97;1.30;;;12.30;99.20;;;;;;4991836;28;20026;-56
2022/06/27 04:53:52;;;;;;;3.63;1.25;;;12.40;98.90;;;;;;4995772;28;20187;-58
2022/06/27 04:56:19;;;;;;;3.92;1.33;;;12.40;99.10;;;;;;4995655;28;20105;-52
2022/06/27 04:58:45;;;;;;;5.97;1.35;;;12.70;99.20;;;;;;4995395;28;20042;-57
2022/06/27 05:01:11;;;;;;;2.22;1.00;;;13.10;98.60;;;;;;4995603;28;20089;-56
2022/06/27 05:03:36;;;;;;;2.88;1.13;;;13.40;98.00;;;;;;4995590;28;20034;-52
2022/06/27 05:06:02;;;;;;;4.03;1.15;;;13.90;97.10;;;;;;4995301;28;20430;-61
2022/06/27 05:08:28;;;;;;;4.55;1.20;;;14.50;96.20;;;;;;4995265;28;20113;-53
2022/06/27 05:10:53;;;;;;;2.97;1.10;;;14.90;94.80;;;;;;4995561;28;20026;-60
2022/06/27 05:13:19;;;;;;;3.47;1.05;;;15.20;94.40;;;;;;4995309;28;20505;-56
2022/06/27 05:15:45;;;;;;;3.38;1.08;;;15.50;93.90;;;;;;4995043;28;20022;-56
2022/06/27 05:18:12;;;;;;;6.05;1.20;;;15.80;94.00;;;;;;4995134;28;20030;-59
2022/06/27 05:20:38;;;;;;;3.00;1.02;;;15.90;93.40;;;;;;4995005;28;20030;-56
2022/06/27 05:23:04;;;;;;;4.50;1.30;;;15.90;93.10;;;;;;4994947;28;20102;-46
2022/06/27 05:25:30;;;;;;;3.95;1.02;;;15.80;93.60;;;;;;4995084;28;20109;-55
2022/06/27 05:27:56;;;;;;;3.17;1.05;;;15.70;93.50;;;;;;4995074;28;20121;-51
2022/06/27 05:30:22;;;;;;;2.90;0.90;;;15.60;94.00;;;;;;4995038;28;20414;-54
2022/06/27 05:32:47;;;;;;;4.03;1.10;;;15.70;94.30;;;;;;4994742;28;20108;-55
2022/06/27 05:35:13;;;;;;;3.95;1.00;;;15.60;93.60;;;;;;4994948;28;20022;-59
2022/06/27 05:37:39;;;;;;;2.78;1.10;;;15.50;93.90;;;;;;4994663;28;20485;-53
2022/06/27 05:40:09;;;;;;;4.28;1.20;;;15.50;94.60;;;;;;4994703;28;20030;-58
2022/06/27 05:42:34;;;;;;;8.45;1.42;;;15.50;94.10;;;;;;4994753;28;20041;-55
2022/06/27 05:45:01;;;;;;;6.13;1.70;;;15.50;94.10;;;;;;4994619;28;20027;-57
2022/06/27 05:47:28;;;;;;;5.63;1.10;;;15.40;94.00;;;;;;4994807;28;20019;-57
2022/06/27 05:49:54;;;;;;;5.00;1.00;;;15.30;94.50;;;;;;4994575;28;20042;-57
2022/06/27 05:52:21;;;;;;;3.35;1.05;;;15.40;95.10;;;;;;4994669;28;20030;-43
2022/06/27 05:54:46;;;;;;;2.58;0.93;;;15.70;94.90;;;;;;4994393;28;20018;-55
2022/06/27 05:57:14;;;;;;;5.13;1.13;;;16.00;93.50;;;;;;4994691;28;20374;-52
2022/06/27 05:59:41;;;;;;;2.78;1.10;;;16.40;93.20;;;;;;4994327;28;20122;-57
2022/06/27 06:02:07;;;;;;;6.35;1.33;;;16.50;92.50;;;;;;4994096;28;20470;-47
2022/06/27 06:04:34;;;;;;;4.00;1.10;;;16.50;92.60;;;;;;4994091;28;20058;-61
2022/06/27 06:07:00;;;;;;;3.47;1.08;;;16.40;92.60;;;;;;4994214;28;20097;-55
2022/06/27 06:09:26;;;;;;;4.15;1.00;;;16.50;93.80;;;;;;4994117;28;20097;-50
2022/06/27 06:11:53;;;;;;;4.25;1.08;;;16.40;93.50;;;;;;4993922;28;20381;-63
2022/06/27 06:14:21;;;;;;;3.58;0.90;;;16.30;92.50;;;;;;4994244;28;20564;-55
2022/06/27 06:16:50;;;;;;;6.13;1.00;;;16.10;93.40;;;;;;4994161;28;20027;-54
2022/06/27 06:19:17;;;;;;;3.72;1.00;;;16.00;93.40;;;;;;4993784;28;20046;-51
2022/06/27 06:21:43;;;;;;;3.35;0.88;;;16.00;94.20;;;;;;4994013;28;20053;-59
2022/06/27 06:24:09;;;;;;;5.32;1.23;;;16.00;93.30;;;;;;4993706;28;20085;-38
2022/06/27 06:26:35;;;;;;;4.38;1.08;;;16.00;93.30;;;;;;4993804;28;20026;-43
2022/06/27 06:29:12;;;;;;;4.60;1.27;;;16.10;93.70;;;;;;4993720;28;20113;-38
2022/06/27 06:31:41;;;;;;;3.30;1.30;;;16.20;94.40;;;;;;4980060;28;20118;-54
2022/06/27 06:34:07;;;;;;;5.13;1.38;;;16.90;93.80;;;;;;4972910;28;20371;-53
2022/06/27 06:36:34;;;;;;;3.58;1.02;;;17.90;91.50;;;;;;4974064;28;20027;-59
2022/06/27 06:39:01;;;;;;;5.53;0.82;;;18.90;87.30;;;;;;4973887;28;20134;-53
2022/06/27 06:41:26;;;;;;;4.85;1.35;;;19.50;85.60;;;;;;4974177;28;20027;-58
2022/06/27 06:43:52;;;;;;;5.47;0.90;;;20.50;85.90;;;;;;4974237;28;20150;-58
2022/06/27 06:46:18;;;;;;;4.93;1.00;;;20.50;78.30;;;;;;4974135;28;20030;-50
2022/06/27 06:48:44;;;;;;;5.10;0.90;;;20.20;77.30;;;;;;4974147;28;20042;-52
2022/06/27 06:51:09;;;;;;;4.43;0.93;;;20.00;80.80;;;;;;4973841;28;20085;-58
2022/06/27 06:53:38;;;;;;;4.03;1.00;;;20.20;78.50;;;;;;4973587;28;20033;-59
2022/06/27 06:56:05;;;;;;;6.40;1.50;;;20.10;78.70;;;;;;4973766;28;20034;-46
2022/06/27 06:58:31;;;;;;;3.90;1.05;;;19.80;78.70;;;;;;4973453;28;20053;-54
2022/06/27 07:00:57;;;;;;;7.38;1.55;;;19.40;80.40;;;;;;4973140;28;20023;-58
2022/06/27 07:03:23;;;;;;;3.38;0.95;;;19.20;80.40;;;;;;4972394;28;20110;-50
2022/06/27 07:05:49;;;;;;;4.40;1.00;;;19.00;83.10;;;;;;4973538;28;20062;-57
2022/06/27 07:08:15;;;;;;;6.93;1.17;;;18.90;84.70;;;;;;4973359;28;20035;-49
2022/06/27 07:10:41;;;;;;;6.78;1.10;;;19.20;87.40;;;;;;4973502;28;20556;-58
2022/06/27 07:13:07;;;;;;;5.90;1.20;;;19.40;83.00;;;;;;4973593;28;20066;-54
2022/06/27 07:15:33;;;;;;;5.13;1.10;;;19.50;82.90;;;;;;4972750;28;20375;-53
2022/06/27 07:18:00;;;;;;;5.55;1.58;;;20.10;84.60;;;;;;4973243;28;20533;-54
2022/06/27 07:20:26;;;;;;;4.57;1.15;;;20.80;78.60;;;;;;4973311;28;20038;-52
2022/06/27 07:22:52;;;;;;;3.83;1.00;;;21.60;77.00;;;;;;4973071;28;20018;-54
2022/06/27 07:25:19;;;;;;;6.25;1.33;;;22.40;73.60;;;;;;4973281;28;20482;-49
2022/06/27 07:27:46;;;;;;;4.40;1.13;;;23.00;69.80;;;;;;4972976;28;20045;-48
2022/06/27 07:30:13;;;;;;;5.82;1.58;;;22.60;70.50;;;;;;4972806;28;20025;-50
2022/06/27 07:32:40;;;;;;;4.97;1.33;;;22.30;68.20;;;;;;4972540;28;20081;-52
2022/06/27 07:35:14;;;;;;;6.43;1.13;;;22.20;72.70;;;;;;4972224;28;20375;-55
2022/06/27 07:37:48;;;;;;;5.55;1.20;;;22.30;68.40;;;;;;4971694;28;20118;-57
2022/06/27 07:40:21;;;;;;;7.38;1.35;;;22.30;68.50;;;;;;4973134;28;20054;-60
2022/06/27 07:42:48;;;;;;;5.75;1.15;;;23.30;69.40;;;;;;4972897;28;20046;-53
2022/06/27 07:45:15;;;;;;;4.85;1.13;;;23.60;61.20;;;;;;4973005;28;20027;-55
2022/06/27 07:47:46;;;;;;;4.90;1.08;;;23.70;64.20;;;;;;4968662;28;20023;-55
2022/06/27 07:50:36;;;;;;;5.53;1.08;;;24.10;61.00;;;;;;4972815;28;20022;-57
2022/06/27 07:53:14;;;;;;;6.93;1.35;;;24.90;59.40;;;;;;4972616;28;20434;-43
2022/06/27 07:55:52;;;;;;;5.10;1.00;;;25.10;58.40;;;;;;4972673;28;20029;-58
2022/06/27 07:58:30;;;;;;;6.20;1.30;;;24.50;57.50;;;;;;4971302;28;20038;-49
2022/06/27 08:00:57;;;;;;;4.50;0.93;;;25.00;60.40;;;;;;4972186;28;20029;-55
2022/06/27 08:03:39;;;;;;;6.75;1.05;;;24.60;56.10;;;;;;4972200;28;20081;-51
2022/06/27 08:06:10;;;;;;;8.43;1.38;;;24.40;65.00;;;;;;4970581;28;20033;-49
2022/06/27 08:08:41;;;;;;;7.55;1.10;;;25.30;61.00;;;;;;4971848;28;20478;-51
2022/06/27 08:11:14;;;;;;;4.88;0.98;;;26.40;54.30;;;;;;4971994;28;20367;-54
2022/06/27 08:13:40;;;;;;;5.97;1.40;;;26.50;50.30;;;;;;4972449;28;20058;-59
2022/06/27 08:16:07;;;;;;;5.35;1.05;;;27.00;49.50;;;;;;4972550;28;20090;-58
2022/06/27 08:18:33;;;;;;;6.03;1.13;;;26.20;50.00;;;;;;4954783;28;20367;-51
2022/06/27 08:21:00;;;;;;;4.70;0.98;;;25.40;51.60;;;;;;4972346;28;20474;-57
2022/06/27 08:23:26;;;;;;;3.33;1.08;;;24.80;51.70;;;;;;4972115;28;20069;-49
2022/06/27 08:25:52;;;;;;;6.10;1.23;;;24.50;53.60;;;;;;4972245;28;20035;-55
2022/06/27 08:28:20;;;;;;;5.05;1.00;;;23.70;54.70;;;;;;4972152;28;20076;-59
2022/06/27 08:30:45;;;;;;;3.67;1.13;;;23.00;58.60;;;;;;4972298;28;20031;-57
2022/06/27 08:33:14;;;;;;;5.75;1.00;;;23.20;58.70;;;;;;4989923;28;20102;-58
2022/06/27 08:35:44;;;;;;;;;;;23.50;57.30;;;;;;4992088;28;20058;-59
2022/06/27 08:38:10;;;;;;;5.07;1.20;;;23.60;56.20;;;;;;4972511;28;19910;-58
2022/06/27 08:40:36;;;;;;;5.05;1.20;;;23.90;61.90;;;;;;4970906;28;20529;-41
2022/06/27 08:43:02;;;;;;;4.30;0.90;;;24.30;56.00;;;;;;4967418;28;20540;-58
2022/06/27 08:45:30;;;;;;;5.20;0.82;;;23.60;54.60;;;;;;4971586;28;20034;-46
2022/06/27 08:48:06;;;;;;;3.70;0.90;;;23.40;59.60;;;;;;4971966;28;20034;-49
2022/06/27 08:50:34;;;;;;;6.13;1.23;;;23.90;64.20;;;;;;4970683;28;20134;-46
2022/06/27 08:53:01;;;;;;;4.97;1.00;;;23.80;58.60;;;;;;4971660;28;20501;-53
2022/06/27 08:55:27;;;;;;;5.30;1.15;;;23.30;58.00;;;;;;4971979;28;20097;-49
2022/06/27 08:57:52;;;;;;;8.00;1.50;;;23.40;59.00;;;;;;4971811;28;20102;-45
2022/06/27 09:00:19;;;;;;;5.70;0.90;;;23.70;62.70;;;;;;4971779;28;20180;-57
2022/06/27 09:02:44;;;;;;;5.45;1.27;;;23.60;58.20;;;;;;4971939;28;20038;-49
2022/06/27 09:05:15;;;;;;;4.28;0.70;;;23.50;61.80;;;;;;4954307;28;20026;-52
2022/06/27 09:08:04;;;;;;;5.68;1.20;;;23.20;58.70;;;;;;4960666;28;20042;-55
2022/06/27 09:10:33;;;;;;;3.83;0.95;;;23.40;60.60;;;;;;4971823;28;20071;-52
2022/06/27 09:13:01;;;;;;;4.10;0.70;;;23.10;62.10;;;;;;4971876;28;20031;-46
2022/06/27 09:15:57;;;;;;;4.37;1.00;;;23.30;59.70;;;;;;4971435;28;20081;-52
2022/06/27 09:18:29;;;;;;;7.13;1.55;;;23.20;58.80;;;;;;4965284;28;20138;-59
2022/06/27 09:21:00;;;;;;;4.95;1.00;;;22.40;60.80;;;;;;4971279;28;20466;-58
2022/06/27 09:23:53;;;;;;;6.47;1.10;;;21.90;64.10;;;;;;4971120;28;20078;-55
2022/06/27 09:26:30;;;;;;;4.32;1.40;;;21.50;66.00;;;;;;4971652;28;20037;-54
2022/06/27 09:28:59;;;;;;;5.40;1.00;;;21.50;67.10;;;;;;4953987;28;20125;-54
2022/06/27 09:31:30;;;;;;;5.07;1.00;;;22.40;67.00;;;;;;4974761;28;20030;-50
2022/06/27 09:33:59;;;;;;;7.53;1.10;;;23.00;62.90;;;;;;4986982;28;20277;-47
2022/06/27 09:36:28;;;;;;;4.07;0.80;;;23.50;58.50;;;;;;4978876;28;20019;-59
2022/06/27 09:38:55;;;;;;;5.78;1.42;;;23.50;59.10;;;;;;4974013;28;20043;-48
2022/06/27 09:41:25;;;;;;;6.90;1.30;;;23.60;58.50;;;;;;4975131;28;20026;-45
2022/06/27 09:43:52;;;;;;;6.13;1.30;;;24.10;58.50;;;;;;4974973;28;20274;-45
2022/06/27 09:46:18;;;;;;;6.68;1.10;;;23.70;58.10;;;;;;4972138;28;20038;-44
2022/06/27 09:48:45;;;;;;;4.40;1.30;;;23.00;57.50;;;;;;4973382;28;20039;-43
2022/06/27 09:51:15;;;;;;;3.75;1.00;;;22.60;60.40;;;;;;4974263;28;20030;-45
2022/06/27 09:53:45;;;;;;;4.30;1.10;;;22.20;59.60;;;;;;4944471;28;20389;-43
2022/06/27 09:56:14;;;;;;;4.15;1.00;;;21.70;63.20;;;;;;4974128;28;20046;-40
2022/06/27 09:58:41;;;;;;;4.38;1.27;;;21.70;63.20;;;;;;4972503;28;20042;-43
2022/06/27 10:01:08;;;;;;;5.55;1.65;;;21.90;63.50;;;;;;4957341;28;20037;-37
2022/06/27 10:03:36;;;;;;;4.32;1.05;;;22.80;67.30;;;;;;4974783;28;20394;-42
2022/06/27 10:06:03;;;;;;;6.20;1.08;;;23.40;62.60;;;;;;4973599;28;20011;-41
2022/06/27 10:08:33;;;;;;;4.53;0.90;;;23.30;56.70;;;;;;4973353;28;20031;-37
2022/06/27 10:11:07;;;;;;;3.25;0.80;;;22.80;55.80;;;;;;4972449;28;20030;-50
2022/06/27 10:13:35;;;;;;;4.15;0.82;;;22.00;57.60;;;;;;4972728;28;20455;-45
2022/06/27 10:16:15;;;;;;;5.13;1.13;;;21.70;58.40;;;;;;4973589;28;20023;-47
2022/06/27 10:19:05;;;;;;;4.82;1.25;;;22.20;59.20;;;;;;4973612;28;20118;-41
2022/06/27 10:21:41;;;;;;;6.55;1.17;;;22.90;58.90;;;;;;4964340;28;20031;-45
2022/06/27 10:24:18;;;;;;;7.55;1.25;;;23.90;57.30;;;;;;4973729;28;20050;-56
2022/06/27 10:26:46;;;;;;;4.97;1.02;;;24.20;60.10;;;;;;4971276;28;20030;-56
2022/06/27 10:29:29;;;;;;;4.30;0.90;;;24.50;56.40;;;;;;4973835;28;20424;-56
2022/06/27 10:31:57;;;;;;;4.40;0.90;;;23.50;53.90;;;;;;4974932;28;20022;-54
2022/06/27 10:34:40;;;;;;;3.65;0.95;;;22.70;58.90;;;;;;4973335;28;20025;-54
2022/06/27 10:37:21;;;;;;;7.32;1.25;;;22.60;62.00;;;;;;4974075;28;20066;-57
2022/06/27 10:39:48;;;;;;;6.28;1.30;;;23.10;60.80;;;;;;4972526;28;20054;-53
2022/06/27 10:42:45;;;;;;;6.30;1.00;;;23.70;57.30;;;;;;4974198;28;20497;-52
2022/06/27 10:45:20;;;;;;;6.53;1.40;;;23.20;57.50;;;;;;4968677;28;20442;-46
2022/06/27 10:47:58;;;;;;;6.43;1.00;;;23.30;61.00;;;;;;4972124;28;20018;-51
2022/06/27 10:50:28;;;;;;;4.93;0.95;;;23.20;61.60;;;;;;4974574;28;20014;-52
2022/06/27 10:53:18;;;;;;;4.25;1.27;;;23.40;62.90;;;;;;4973609;28;20065;-45
2022/06/27 10:55:45;;;;;;;6.28;0.90;;;23.90;58.90;;;;;;4973298;28;20023;-59
2022/06/27 10:58:22;;;;;;;6.60;1.23;;;24.30;58.00;;;;;;4973484;28;20038;-44
2022/06/27 11:00:48;;;;;;;8.05;1.20;;;24.50;60.10;;;;;;4971111;28;20556;-42
2022/06/27 11:03:25;;;;;;;7.95;1.30;;;24.90;56.20;;;;;;4973717;28;20053;-39
2022/06/27 11:06:06;;;;;;;5.28;0.90;;;25.20;61.60;;;;;;4973742;28;20545;-56
2022/06/27 11:08:37;;;;;;;6.95;1.10;;;25.30;58.00;;;;;;4973605;28;20484;-57
2022/06/27 11:11:04;;;;;;;5.95;1.05;;;24.50;57.50;;;;;;4956229;28;20052;-54
2022/06/27 11:13:47;;;;;;;4.60;0.80;;;24.00;61.00;;;;;;4973113;28;20114;-59
2022/06/27 11:16:14;;;;;;;5.25;1.15;;;23.70;60.10;;;;;;4972182;28;20034;-55
2022/06/27 11:18:48;;;;;;;9.43;1.40;;;24.10;60.90;;;;;;4972753;28;20038;-52
2022/06/27 11:21:26;;;;;;;5.55;1.15;;;24.00;59.90;;;;;;4973010;28;20041;-53
2022/06/27 11:23:58;;;;;;;4.70;1.30;;;23.90;60.90;;;;;;4972523;28;20047;-60
2022/06/27 11:26:30;;;;;;;4.72;1.20;;;23.40;58.60;;;;;;4972449;28;20022;-59
2022/06/27 11:32:08;;;;;;;3.60;1.05;;;22.60;64.00;;;;;;4978497;28;20516;-55
2022/06/27 11:34:36;;;;;;;4.47;0.98;;;22.50;63.50;;;;;;4990373;28;20026;-53
2022/06/27 11:37:11;;;;;;;5.25;0.93;;;22.60;64.10;;;;;;4989454;28;20033;-55
2022/06/27 11:39:37;;;;;;;4.18;0.90;;;22.50;63.80;;;;;;4978290;28;20038;-55
2022/06/27 11:42:10;;;;;;;4.90;0.90;;;21.60;63.70;;;;;;4972024;28;20494;-59
2022/06/27 11:44:38;;;;;;;6.72;0.98;;;20.80;68.50;;;;;;4972074;28;20101;-52
2022/06/27 11:47:08;;;;;;;3.65;0.80;;;20.80;74.10;;;;;;4972564;28;20027;-54
2022/06/27 11:49:41;;;;;;;2.42;0.70;;;20.80;73.00;;;;;;4972125;28;20081;-60
2022/06/27 11:52:12;;;;;;;4.53;0.70;;;21.00;70.40;;;;;;4972307;28;20026;-54
2022/06/27 11:54:45;;;;;;;3.63;0.73;;;21.70;71.60;;;;;;4965193;28;20165;-48
2022/06/27 11:57:44;;;;;;;1.00;0.30;;;22.60;68.10;;;;;;4972171;28;20034;-48
2022/06/27 12:00:20;;;;;;;3.28;0.52;;;23.00;64.30;;;;;;4947642;28;20035;-44
2022/06/27 12:03:11;;;;;;;1.50;0.40;;;22.70;64.30;;;;;;4971436;28;20031;-54
2022/06/27 12:05:39;;;;;;;1.17;0.47;;;22.60;62.30;;;;;;4971350;28;20031;-52
2022/06/27 12:08:09;;;;;;;2.40;0.68;;;22.30;64.30;;;;;;4971714;28;20409;-56
2022/06/27 12:10:35;;;;;;;2.67;0.50;;;22.30;66.60;;;;;;4971795;28;20034;-59
2022/06/27 12:13:09;;;;;;;2.13;0.47;;;21.90;67.60;;;;;;4971981;28;20031;-42
2022/06/27 12:15:36;;;;;;;3.58;0.73;;;21.60;66.20;;;;;;4971931;28;20045;-55
2022/06/27 12:18:03;;;;;;;2.60;0.55;;;21.80;70.10;;;;;;4971722;28;20560;-50
2022/06/27 12:20:31;;;;;;;2.95;0.60;;;22.10;69.20;;;;;;4971770;28;20057;-55
2022/06/27 12:22:57;;;;;;;2.10;0.60;;;22.00;67.50;;;;;;4931697;28;1160899;-45
2022/06/27 12:25:23;;;;;;;4.32;0.77;;;21.80;67.80;;;;;;4969406;28;20034;-44
2022/06/27 12:27:50;;;;;;;2.65;0.47;;;21.80;68.70;;;;;;4971716;28;20125;-48
2022/06/27 12:30:17;;;;;;;3.53;0.73;;;22.00;68.70;;;;;;4971325;28;20077;-46
2022/06/27 12:32:43;;;;;;;3.92;1.02;;;21.80;67.60;;;;;;4973447;28;20027;-46
2022/06/27 12:35:09;;;;;;;6.18;0.85;;;21.70;70.20;;;;;;4971950;28;20394;-58
2022/06/27 12:37:36;;;;;;;1.63;0.50;;;21.40;68.40;;;;;;4971549;28;20033;-54
2022/06/27 12:40:07;;;;;;;5.40;1.08;;;21.50;72.00;;;;;;4971650;28;20510;-57
2022/06/27 12:42:33;;;;;;;4.93;0.60;;;22.00;71.70;;;;;;4971070;28;20122;-57
2022/06/27 12:44:59;;;;;;;5.22;0.73;;;22.20;67.20;;;;;;4971372;28;20027;-51
2022/06/27 12:47:25;;;;;;;4.25;0.70;;;22.30;68.60;;;;;;4971165;28;20053;-49
2022/06/27 12:49:51;;;;;;;4.65;0.70;;;22.00;69.40;;;;;;4971348;28;20015;-55
2022/06/27 12:52:17;;;;;;;4.22;0.68;;;21.30;69.90;;;;;;4971578;28;20092;-51
2022/06/27 12:54:43;;;;;;;2.55;0.55;;;20.80;71.00;;;;;;4971494;28;20015;-49
2022/06/27 12:57:13;;;;;;;3.03;0.43;;;20.80;74.30;;;;;;4971526;28;20034;-47
2022/06/27 12:59:40;;;;;;;2.75;0.77;;;20.80;72.00;;;;;;4970893;28;20070;-45